KPPF/PPF METAR and TAF weather

Enter ICAO airport designator
Station Type Date Time Source
KPPF METAR 2019/04/20 17:52 UTC NOAA

KPPF 201752Z AUTO VRB06KT 10SM CLR 22/02 A2999 RMK AO2 SLP153 T02170022 10217 20017 58012


Station Type Date Time Source
KPPF Decoded METAR 2019/04/20 17:52 UTC NOAA

PARSONS TRI-CITY AIRPORT, KS, United States (KPPF) 37-20N 95-30W 274M
Apr 20, 2019 - 01:52 PM EDT / 2019.04.20 1752 UTC
Wind: Variable at 7 MPH (6 KT):0
Visibility: 10 mile(s):0
Sky conditions: clear
Temperature: 71.1 F (21.7 C)
Dew Point: 36.0 F (2.2 C)
Relative Humidity: 27%
Pressure (altimeter): 29.99 in. Hg (1015 hPa)
Pressure tendency: 0.04 inches (1.2 hPa) lower than three hours ago
ob: KPPF 201752Z AUTO VRB06KT 10SM CLR 22/02 A2999 RMK AO2 SLP153 T02170022 10217 20017 58012
cycle: 18

Station Type Date Time Source
KPPF TAF UTC NOAA

Error!

Example: see airport list